Time;durP1;ratioP1;P1;durP2;ratioP2;P2;SDS_P1;SDS_P2;PMS_P1;PMS_P2;Temp;Humidity;BMP_temperature;BMP_pressure;BME280_temperature;BME280_humidity;BME280_pressure;Samples;Min_cycle;Max_cycle;Signal;HPM_P1;HPM_P2
2024/04/18 00:00:23;;;;;;;76.75;8.57;;;;;;;5.93;100.00;97302.78;5401987;26;20054;-58
2024/04/18 00:02:48;;;;;;;57.03;8.27;;;;;;;6.06;100.00;97309.78;5403984;26;20014;-58
2024/04/18 00:05:15;;;;;;;96.10;11.10;;;;;;;6.12;100.00;97308.91;5405110;26;20012;-59
2024/04/18 00:07:41;;;;;;;67.15;9.20;;;;;;;6.02;100.00;97313.19;5400541;26;20014;-58
2024/04/18 00:10:06;;;;;;;66.60;7.90;;;;;;;6.47;100.00;97310.75;5401340;26;20002;-58
2024/04/18 00:12:32;;;;;;;71.43;9.18;;;;;;;6.33;100.00;97318.47;5399461;26;20010;-60
2024/04/18 00:14:57;;;;;;;63.55;8.55;;;;;;;6.49;100.00;97318.50;5403122;26;20418;-59
2024/04/18 00:17:22;;;;;;;86.90;9.70;;;;;;;6.34;100.00;97315.03;5405788;26;20472;-60
2024/04/18 00:19:48;;;;;;;59.92;8.48;;;;;;;6.12;100.00;97319.25;5400963;26;20018;-58
2024/04/18 00:22:13;;;;;;;103.60;11.07;;;;;;;6.32;100.00;97327.09;5400530;26;20004;-58
2024/04/18 00:24:38;;;;;;;65.13;8.85;;;;;;;6.12;100.00;97327.88;5408581;26;20018;-58
2024/04/18 00:27:04;;;;;;;89.20;10.18;;;;;;;6.04;100.00;97323.50;5400033;26;20050;-58
2024/04/18 00:29:29;;;;;;;46.20;7.75;;;;;;;6.11;100.00;97320.97;5400553;26;20018;-59
2024/04/18 00:31:54;;;;;;;57.10;7.53;;;;;;;6.18;100.00;97321.88;5406754;26;20176;-60
2024/04/18 00:34:20;;;;;;;79.38;9.35;;;;;;;6.12;100.00;97312.38;5401376;26;20018;-58
2024/04/18 00:36:45;;;;;;;49.13;7.97;;;;;;;6.01;100.00;97311.44;5403974;26;20016;-59
2024/04/18 00:39:10;;;;;;;83.07;9.55;;;;;;;6.02;100.00;97317.47;5402566;26;20014;-58
2024/04/18 00:41:35;;;;;;;78.10;9.50;;;;;;;5.96;100.00;97315.72;5405718;26;20000;-59
2024/04/18 00:44:01;;;;;;;67.07;8.65;;;;;;;6.06;100.00;97319.22;5400111;26;20201;-59
2024/04/18 00:46:27;;;;;;;87.80;9.77;;;;;;;6.19;100.00;97321.00;5405465;26;19995;-59
2024/04/18 00:48:57;;;;;;;55.50;8.20;;;;;;;5.91;100.00;97320.00;5402692;26;20007;-61
2024/04/18 00:51:22;;;;;;;81.45;9.93;;;;;;;5.81;100.00;97319.97;5404446;26;20062;-58
2024/04/18 00:53:48;;;;;;;54.42;7.30;;;;;;;5.80;100.00;97320.81;5402870;26;20015;-58
2024/04/18 00:56:14;;;;;;;92.10;10.38;;;;;;;5.81;100.00;97321.66;5402759;26;19999;-58
2024/04/18 00:58:40;;;;;;;61.92;8.07;;;;;;;6.09;100.00;97314.09;5403466;26;20002;-58
2024/04/18 01:01:05;;;;;;;96.93;10.80;;;;;;;6.07;100.00;97311.50;5404522;26;20452;-61
2024/04/18 01:03:31;;;;;;;68.28;8.10;;;;;;;5.94;100.00;97317.44;5404550;26;19999;-60
2024/04/18 01:05:56;;;;;;;86.53;8.85;;;;;;;5.91;100.00;97320.88;5400363;26;20674;-58
2024/04/18 01:08:22;;;;;;;71.75;8.88;;;;;;;6.07;100.00;97316.66;5397022;26;20018;-59
2024/04/18 01:10:47;;;;;;;46.17;8.85;;;;;;;5.98;100.00;97320.03;5400340;26;21188;-58
2024/04/18 01:13:12;;;;;;;86.93;9.95;;;;;;;5.88;100.00;97318.28;5399957;26;20011;-58
2024/04/18 01:15:38;;;;;;;60.63;8.27;;;;;;;5.96;100.00;97320.88;5402408;26;20015;-60
2024/04/18 01:18:03;;;;;;;76.00;9.05;;;;;;;5.78;100.00;97327.69;5402037;26;20457;-59
2024/04/18 01:20:29;;;;;;;114.13;11.35;;;;;;;5.83;100.00;97323.41;5399459;26;20509;-59
2024/04/18 01:22:54;;;;;;;56.70;8.00;;;;;;;6.00;100.00;97327.78;5401551;26;20839;-60
2024/04/18 01:25:19;;;;;;;70.82;9.88;;;;;;;5.98;100.00;97322.59;5401571;26;19999;-58
2024/04/18 01:27:45;;;;;;;73.57;9.02;;;;;;;6.11;100.00;97317.53;5404513;26;19996;-58
2024/04/18 01:30:10;;;;;;;61.70;8.38;;;;;;;6.16;100.00;97318.41;5404752;26;20011;-58
2024/04/18 01:32:36;;;;;;;61.10;8.30;;;;;;;5.94;100.00;97322.59;5400629;26;20075;-58
2024/04/18 01:35:03;;;;;;;83.75;10.45;;;;;;;5.80;100.00;97317.38;5402592;26;20796;-58
2024/04/18 01:37:28;;;;;;;71.40;8.52;;;;;;;5.88;100.00;97315.69;5403930;26;20037;-60
2024/04/18 01:39:54;;;;;;;62.17;8.02;;;;;;;5.65;100.00;97319.03;5406180;26;20103;-59
2024/04/18 01:42:19;;;;;;;113.40;11.25;;;;;;;5.75;100.00;97319.06;5396575;26;20480;-58
2024/04/18 01:44:46;;;;;;;59.72;7.85;;;;;;;5.86;100.00;97322.53;5403597;26;20532;-59
2024/04/18 01:47:11;;;;;;;62.83;8.43;;;;;;;5.73;100.00;97321.63;5401831;26;20076;-60
2024/04/18 01:49:38;;;;;;;76.47;8.05;;;;;;;5.60;100.00;97321.56;5407713;26;20007;-59
2024/04/18 01:52:04;;;;;;;63.03;9.07;;;;;;;5.59;100.00;97324.13;5400289;26;20351;-58
2024/04/18 01:54:30;;;;;;;88.47;10.50;;;;;;;5.50;100.00;97327.53;5398419;26;20007;-58
2024/04/18 01:56:55;;;;;;;61.88;9.25;;;;;;;5.66;100.00;97325.03;5403938;26;20006;-59
2024/04/18 01:59:21;;;;;;;93.53;11.57;;;;;;;5.57;100.00;97324.13;5401133;26;19996;-58
2024/04/18 02:01:46;;;;;;;43.83;7.13;;;;;;;5.60;100.00;97326.72;5398074;26;20000;-59
2024/04/18 02:04:11;;;;;;;89.68;9.30;;;;;;;5.53;100.00;97322.38;5403760;26;20004;-61
2024/04/18 02:06:37;;;;;;;78.70;9.15;;;;;;;5.44;100.00;97330.94;5402776;26;19998;-60
2024/04/18 02:09:02;;;;;;;77.88;9.68;;;;;;;5.46;100.00;97331.78;5404377;26;20435;-59
2024/04/18 02:11:27;;;;;;;95.82;11.05;;;;;;;5.53;100.00;97329.28;5398013;26;20531;-59
2024/04/18 02:13:53;;;;;;;68.20;9.10;;;;;;;5.41;100.00;97330.91;5401901;26;20010;-62
2024/04/18 02:16:18;;;;;;;81.07;10.13;;;;;;;5.42;100.00;97332.63;5398094;26;20334;-60
2024/04/18 02:18:43;;;;;;;69.40;9.00;;;;;;;5.38;100.00;97340.34;5402000;26;20977;-59
2024/04/18 02:21:08;;;;;;;108.55;11.90;;;;;;;5.30;100.00;97338.56;5400648;26;20062;-60
2024/04/18 02:23:34;;;;;;;46.97;8.15;;;;;;;5.30;100.00;97336.00;5400173;26;20022;-60
2024/04/18 02:26:00;;;;;;;84.63;9.52;;;;;;;5.14;100.00;97339.31;5400717;26;19999;-61
2024/04/18 02:28:25;;;;;;;111.53;12.00;;;;;;;5.31;100.00;97334.28;5395851;26;20409;-60
2024/04/18 02:30:50;;;;;;;53.38;8.63;;;;;;;5.49;100.00;97332.69;5400347;26;20007;-58
2024/04/18 02:33:15;;;;;;;54.83;8.07;;;;;;;5.46;100.00;97333.53;5399233;26;20003;-58
2024/04/18 02:35:41;;;;;;;78.18;9.23;;;;;;;5.48;100.00;97339.53;5400194;26;20099;-59
2024/04/18 02:38:06;;;;;;;72.25;8.55;;;;;;;5.43;100.00;97343.81;5402094;26;20597;-58
2024/04/18 02:40:31;;;;;;;103.88;10.48;;;;;;;5.66;100.00;97345.66;5402034;26;19996;-60
2024/04/18 02:42:57;;;;;;;85.97;9.70;;;;;;;5.31;100.00;97339.44;5401407;26;20010;-57
2024/04/18 02:45:22;;;;;;;81.97;10.10;;;;;;;5.45;100.00;97342.09;5406535;26;20915;-59
2024/04/18 02:47:50;;;;;;;55.90;8.27;;;;;;;5.32;100.00;97344.63;5399534;26;19999;-57
2024/04/18 02:50:15;;;;;;;80.55;9.13;;;;;;;5.49;100.00;97336.09;5404173;26;20018;-58
2024/04/18 02:52:40;;;;;;;69.18;8.85;;;;;;;5.49;100.00;97338.69;5398535;26;20035;-62
2024/04/18 02:55:06;;;;;;;67.55;8.45;;;;;;;5.26;100.00;97344.56;5401915;26;20018;-58
2024/04/18 02:57:31;;;;;;;73.85;9.90;;;;;;;5.24;100.00;97342.81;5401016;26;20022;-58
2024/04/18 02:59:59;;;;;;;90.95;10.50;;;;;;;5.19;100.00;97345.34;5402608;26;20030;-58
2024/04/18 03:02:24;;;;;;;109.72;11.77;;;;;;;4.99;100.00;97348.66;5398712;26;20348;-61
2024/04/18 03:04:49;;;;;;;54.63;8.38;;;;;;;5.06;100.00;97350.41;5404751;26;20006;-60
2024/04/18 03:07:15;;;;;;;84.40;8.88;;;;;;;5.16;100.00;97345.34;5397984;26;20000;-62
2024/04/18 03:09:40;;;;;;;65.40;8.80;;;;;;;5.33;100.00;97342.88;5398367;26;19999;-62
2024/04/18 03:12:06;;;;;;;82.75;9.82;;;;;;;5.40;100.00;97347.25;5401610;26;20010;-60
2024/04/18 03:14:31;;;;;;;122.38;12.15;;;;;;;5.15;100.00;97347.06;5399158;26;19999;-59
2024/04/18 03:16:56;;;;;;;70.57;8.60;;;;;;;4.78;100.00;97355.31;5398087;26;20011;-59
2024/04/18 03:19:21;;;;;;;74.57;9.98;;;;;;;5.00;100.00;97352.06;5404891;26;20073;-59
2024/04/18 03:21:47;;;;;;;68.70;9.93;;;;;;;4.95;100.00;97359.78;5397635;26;20463;-57
2024/04/18 03:24:16;;;;;;;65.43;9.50;;;;;;;4.98;100.00;97357.22;5400174;26;20234;-58
2024/04/18 03:26:42;;;;;;;69.05;9.20;;;;;;;4.62;100.00;97354.31;5400268;26;20011;-62
2024/04/18 03:29:07;;;;;;;101.93;11.32;;;;;;;4.71;100.00;97363.84;5400864;26;20049;-59
2024/04/18 03:31:32;;;;;;;104.90;12.10;;;;;;;4.80;100.00;97363.06;5405329;26;20015;-61
2024/04/18 03:33:57;;;;;;;71.30;9.20;;;;;;;4.64;100.00;97365.47;5404093;26;20456;-58
2024/04/18 03:36:23;;;;;;;97.15;11.20;;;;;;;4.65;100.00;97363.78;5397157;26;20451;-59
2024/04/18 03:38:52;;;;;;;59.30;8.68;;;;;;;4.60;100.00;97370.59;5405476;26;20004;-59
2024/04/18 03:41:17;;;;;;;86.50;11.15;;;;;;;4.62;100.00;97372.34;5400568;26;20107;-59
2024/04/18 03:43:42;;;;;;;77.00;9.68;;;;;;;4.59;100.00;97377.47;5401784;26;20475;-60
2024/04/18 03:46:08;;;;;;;78.38;9.07;;;;;;;4.77;100.00;97378.50;5404120;26;20027;-58
2024/04/18 03:48:33;;;;;;;93.97;10.60;;;;;;;4.84;100.00;97377.72;5402596;26;20703;-59
2024/04/18 03:50:58;;;;;;;83.45;9.35;;;;;;;4.65;100.00;97381.81;5376776;26;20007;-59
2024/04/18 03:53:25;;;;;;;94.00;10.82;;;;;;;4.84;100.00;97379.41;5406836;26;20464;-58
2024/04/18 03:55:51;;;;;;;52.72;8.88;;;;;;;5.01;100.00;97385.59;5405918;26;20802;-58
2024/04/18 03:58:16;;;;;;;68.40;8.70;;;;;;;4.98;100.00;97383.00;5406728;26;20447;-58
2024/04/18 04:00:41;;;;;;;71.85;9.27;;;;;;;5.43;100.00;97385.97;5400896;26;20006;-57
2024/04/18 04:03:07;;;;;;;67.25;9.50;;;;;;;5.16;100.00;97391.75;5404196;26;20064;-58
2024/04/18 04:05:32;;;;;;;93.43;12.00;;;;;;;5.06;100.00;97395.94;5402387;26;20570;-58
2024/04/18 04:08:00;;;;;;;85.32;10.35;;;;;;;4.93;100.00;97398.41;5404383;26;20007;-58
2024/04/18 04:10:26;;;;;;;96.53;11.25;;;;;;;5.20;100.00;97401.25;5402122;26;20018;-59
2024/04/18 04:12:51;;;;;;;61.22;8.07;;;;;;;5.16;100.00;97391.75;5402794;26;20003;-60
2024/04/18 04:15:16;;;;;;;79.70;10.38;;;;;;;5.00;100.00;97399.34;5403549;26;20077;-58
2024/04/18 04:17:47;;;;;;;56.63;10.10;;;;;;;4.87;100.00;97403.53;5419188;26;20004;-59
2024/04/18 04:20:13;;;;;;;73.15;9.63;;;;;;;5.15;100.00;97406.34;5404397;26;20149;-60
2024/04/18 04:22:38;;;;;;;90.28;11.05;;;;;;;5.45;100.00;97406.56;5398246;26;20033;-60
2024/04/18 04:25:04;;;;;;;89.57;10.43;;;;;;;5.25;100.00;97409.00;5407045;26;20494;-60
2024/04/18 04:27:29;;;;;;;95.15;10.90;;;;;;;5.33;100.00;97405.66;5416232;26;19999;-61
2024/04/18 04:29:54;;;;;;;86.78;10.18;;;;;;;5.29;100.00;97408.19;5402373;26;19996;-62
2024/04/18 04:32:22;;;;;;;81.05;10.25;;;;;;;5.54;100.00;97408.38;5400931;26;20011;-61
2024/04/18 04:34:48;;;;;;;59.05;8.43;;;;;;;5.57;100.00;97414.41;5399767;26;20013;-60
2024/04/18 04:37:15;;;;;;;81.38;10.18;;;;;;;5.57;100.00;97418.72;5404180;26;20014;-60
2024/04/18 04:39:40;;;;;;;100.57;11.15;;;;;;;5.71;100.00;97419.69;5406170;26;20483;-61
2024/04/18 04:42:05;;;;;;;65.95;10.10;;;;;;;5.73;100.00;97422.28;5406682;26;20269;-59
2024/04/18 04:44:30;;;;;;;115.38;12.25;;;;;;;5.42;100.00;97435.78;5399611;26;20014;-58
2024/04/18 04:46:56;;;;;;;73.43;9.80;;;;;;;5.58;100.00;97431.63;5400277;26;20010;-61
2024/04/18 04:49:21;;;;;;;58.35;9.07;;;;;;;5.38;100.00;97443.50;5428892;26;20004;-59
2024/04/18 04:51:47;;;;;;;78.18;10.02;;;;;;;5.62;100.00;97440.25;5397901;26;20075;-59
2024/04/18 04:54:12;;;;;;;57.80;10.27;;;;;;;6.06;100.00;97449.19;5400853;26;20444;-59
2024/04/18 04:56:37;;;;;;;87.32;11.75;;;;;;;6.35;100.00;97452.78;5400892;26;20348;-60
2024/04/18 04:59:03;;;;;;;75.97;10.50;;;;;;;6.29;100.00;97453.63;5406481;26;20030;-59
2024/04/18 05:01:28;;;;;;;104.38;17.33;;;;;;;6.50;100.00;97454.56;5403244;26;20467;-60
2024/04/18 05:03:53;;;;;;;59.80;14.27;;;;;;;6.76;100.00;97456.41;5402224;26;20003;-58
2024/04/18 05:06:19;;;;;;;65.40;8.95;;;;;;;6.61;100.00;97460.63;5403490;26;20017;-60
2024/04/18 05:08:45;;;;;;;54.25;10.13;;;;;;;6.94;100.00;97463.31;5400540;26;20395;-58
2024/04/18 05:11:10;;;;;;;101.68;11.65;;;;;;;6.88;100.00;97466.78;5399833;26;19999;-60
2024/04/18 05:13:36;;;;;;;99.97;13.13;;;;;;;7.38;100.00;97474.63;5399192;26;20013;-62
2024/04/18 05:16:01;;;;;;;84.70;10.23;;;;;;;7.33;100.00;97475.47;5405135;26;20014;-58
2024/04/18 05:18:26;;;;;;;71.70;10.95;;;;;;;7.33;100.00;97485.81;5403040;26;20008;-61
2024/04/18 05:20:52;;;;;;;59.45;9.35;;;;;;;8.03;100.00;97476.34;5402716;26;20122;-58
2024/04/18 05:23:17;;;;;;;74.93;11.30;;;;;;;7.92;100.00;97478.97;5401024;26;20534;-59
2024/04/18 05:25:42;;;;;;;67.13;10.60;;;;;;;7.80;100.00;97484.13;5398311;26;19995;-58
2024/04/18 05:28:13;;;;;;;80.13;10.73;;;;;;;8.77;100.00;97486.53;5404194;26;20046;-58
2024/04/18 05:33:25;;;;;;;46.78;8.07;;;;;;;8.90;100.00;97490.78;5402513;26;20545;-58
2024/04/18 05:35:51;;;;;;;64.72;9.70;;;;;;;8.80;100.00;97495.16;5403638;26;19995;-62
2024/04/18 05:38:16;;;;;;;54.83;9.38;;;;;;;8.52;100.00;97489.19;5404673;26;20446;-59
2024/04/18 05:40:42;;;;;;;76.07;11.75;;;;;;;9.03;100.00;97498.53;5401447;26;20003;-58
2024/04/18 05:43:07;;;;;;;77.38;9.82;;;;;;;9.10;100.00;97501.06;5396076;26;20535;-59
2024/04/18 05:45:32;;;;;;;92.57;12.38;;;;;;;9.39;100.00;97504.34;5400051;26;20398;-60
2024/04/18 05:47:57;;;;;;;70.47;10.75;;;;;;;7.90;100.00;97501.38;5401520;26;20004;-60
2024/04/18 05:50:23;;;;;;;87.03;11.63;;;;;;;8.50;100.00;97509.91;5401000;26;20447;-58
2024/04/18 05:52:49;;;;;;;51.28;10.40;;;;;;;9.21;100.00;97506.19;5402663;26;20013;-61
2024/04/18 05:55:14;;;;;;;50.28;13.18;;;;;;;8.58;100.00;97512.53;5402512;26;20401;-61
2024/04/18 05:57:39;;;;;;;95.80;13.10;;;;;;;9.68;100.00;97508.50;5401913;26;20064;-59
2024/04/18 06:00:05;;;;;;;67.90;11.15;;;;;;;9.36;100.00;97509.59;5403566;26;20010;-59
2024/04/18 06:02:31;;;;;;;81.30;11.05;;;;;;;9.62;100.00;97509.41;5404222;26;20003;-61
2024/04/18 06:04:56;;;;;;;64.20;10.82;;;;;;;9.57;100.00;97511.16;5401861;26;20403;-58
2024/04/18 06:07:21;;;;;;;61.65;9.65;;;;;;;9.40;100.00;97515.63;5402348;26;20014;-58
2024/04/18 06:09:47;;;;;;;40.78;8.48;;;;;;;10.63;100.00;97506.78;5400147;26;20010;-60
2024/04/18 06:12:12;;;;;;;69.93;12.57;;;;;;;10.66;100.00;97512.81;5425539;26;20014;-58
2024/04/18 06:14:37;;;;;;;119.43;16.52;;;;;;;11.22;100.00;97520.81;5397781;26;20014;-58
2024/04/18 06:17:03;;;;;;;61.55;11.35;;;;;;;10.81;100.00;97526.53;5404272;26;20004;-58
2024/04/18 06:19:28;;;;;;;57.17;11.35;;;;;;;11.05;100.00;97527.09;5399073;26;20015;-58
2024/04/18 06:21:53;;;;;;;67.50;10.93;;;;;;;11.20;100.00;97528.63;5399353;26;20664;-58
2024/04/18 06:24:19;;;;;;;53.10;10.02;;;;;;;10.33;100.00;97527.00;5406831;26;20492;-61
2024/04/18 06:26:44;;;;;;;81.75;11.18;;;;;;;10.65;100.00;97526.69;5405212;26;20044;-58
2024/04/18 06:29:10;;;;;;;71.63;10.15;;;;;;;10.46;100.00;97528.63;5405751;26;20004;-59
2024/04/18 06:31:35;;;;;;;80.85;10.43;;;;;;;10.05;100.00;97527.28;5396147;26;20014;-63
2024/04/18 06:34:01;;;;;;;54.33;9.15;;;;;;;11.94;100.00;97544.94;5403855;26;20000;-59
2024/04/18 06:36:26;;;;;;;76.82;12.45;;;;;;;11.15;100.00;97533.91;5400500;26;20006;-59
2024/04/18 06:38:51;;;;;;;47.88;9.65;;;;;;;11.75;100.00;97536.53;5398955;26;20000;-61
2024/04/18 06:41:16;;;;;;;62.97;10.65;;;;;;;11.84;100.00;97536.41;5401970;26;20566;-60
2024/04/18 06:43:42;;;;;;;81.88;13.18;;;;;;;12.23;100.00;97535.81;5400145;26;20554;-61
2024/04/18 06:46:08;;;;;;;64.68;10.23;;;;;;;10.39;100.00;97545.13;5401080;26;20015;-62
2024/04/18 06:48:34;;;;;;;76.10;12.05;;;;;;;10.89;100.00;97544.63;5400925;26;19999;-59
2024/04/18 06:50:59;;;;;;;57.65;10.13;;;;;;;11.91;100.00;97546.75;5400561;26;21066;-58
2024/04/18 06:53:24;;;;;;;49.22;8.45;;;;;;;11.71;100.00;97550.50;5399430;26;20004;-59
2024/04/18 06:55:50;;;;;;;50.03;7.50;;;;;;;12.58;100.00;97554.31;5399043;26;20010;-61
2024/04/18 06:58:15;;;;;;;51.00;8.07;;;;;;;11.75;100.00;97553.91;5401534;26;19999;-59
2024/04/18 07:00:41;;;;;;;93.55;11.40;;;;;;;12.92;100.00;97554.56;5395367;26;20068;-59
2024/04/18 07:03:07;;;;;;;58.63;8.57;;;;;;;12.05;100.00;97565.66;5398680;26;20476;-58
2024/04/18 07:05:33;;;;;;;60.53;8.52;;;;;;;11.67;100.00;97567.06;5402481;26;20046;-61
2024/04/18 07:07:58;;;;;;;69.78;8.68;;;;;;;12.21;100.00;97568.84;5403169;26;20015;-58
2024/04/18 07:10:24;;;;;;;50.97;7.80;;;;;;;12.50;100.00;97572.72;5398144;26;20006;-59
2024/04/18 07:12:49;;;;;;;46.90;7.00;;;;;;;13.46;100.00;97568.22;5396044;26;20569;-60
2024/04/18 07:15:15;;;;;;;64.80;8.82;;;;;;;12.35;100.00;97572.97;5400916;26;20806;-59
2024/04/18 07:17:42;;;;;;;91.18;10.55;;;;;;;11.28;100.00;97578.84;5403744;26;20002;-58
2024/04/18 07:20:09;;;;;;;54.95;7.53;;;;;;;13.41;100.00;97577.03;5405392;26;20073;-59
2024/04/18 07:22:36;;;;;;;87.25;9.50;;;;;;;12.11;100.00;97580.31;5400128;26;20003;-60
2024/04/18 07:25:02;;;;;;;53.83;8.05;;;;;;;11.94;100.00;97583.16;5404890;26;19995;-59
2024/04/18 07:27:27;;;;;;;52.80;7.97;;;;;;;12.17;100.00;97590.66;5403923;26;20073;-58
2024/04/18 07:29:53;;;;;;;65.82;8.20;;;;;;;13.36;100.00;97586.72;5401450;26;19999;-62
2024/04/18 07:32:18;;;;;;;68.32;8.90;;;;;;;13.30;100.00;97576.41;5403721;26;20003;-61
2024/04/18 07:34:44;;;;;;;74.07;9.63;;;;;;;13.41;100.00;97591.84;5403583;26;20336;-59
2024/04/18 07:37:09;;;;;;;52.33;8.52;;;;;;;13.50;100.00;97596.03;5401628;26;20003;-61
2024/04/18 07:39:34;;;;;;;69.80;8.88;;;;;;;14.19;100.00;97590.97;5405042;26;20065;-62
2024/04/18 07:41:59;;;;;;;50.22;8.07;;;;;;;15.39;100.00;97600.09;5402218;26;20199;-59
2024/04/18 07:44:25;;;;;;;48.67;7.32;;;;;;;14.64;100.00;97602.09;5405324;26;20002;-58
2024/04/18 07:46:50;;;;;;;68.55;9.23;;;;;;;12.78;100.00;97610.50;5399511;26;20674;-58
2024/04/18 07:49:15;;;;;;;47.08;7.15;;;;;;;14.67;100.00;97606.38;5401944;26;20004;-59
2024/04/18 07:51:42;;;;;;;75.20;9.95;;;;;;;13.76;100.00;97615.50;5403447;26;20014;-58
2024/04/18 07:54:08;;;;;;;67.00;8.35;;;;;;;13.01;100.00;97619.63;5402493;26;20077;-58
2024/04/18 07:56:33;;;;;;;50.72;7.47;;;;;;;13.57;100.00;97621.16;5400648;26;20021;-59
2024/04/18 07:58:58;;;;;;;41.45;7.25;;;;;;;14.89;100.00;97614.56;5401782;26;19999;-58
2024/04/18 08:01:24;;;;;;;55.80;8.30;;;;;;;15.15;100.00;97623.47;5401384;26;20081;-59
2024/04/18 08:03:49;;;;;;;65.78;9.00;;;;;;;18.92;100.00;97620.00;5399340;26;19995;-61
2024/04/18 08:06:14;;;;;;;35.03;7.07;;;;;;;18.46;82.96;97614.91;5404153;26;19999;-60
2024/04/18 08:08:40;;;;;;;84.22;10.57;;;;;;;17.74;98.22;97622.94;5398852;26;20000;-59
2024/04/18 08:11:08;;;;;;;62.40;9.50;;;;;;;15.59;96.25;97624.84;5403812;26;20346;-60
2024/04/18 08:13:35;;;;;;;38.25;7.95;;;;;;;15.01;100.00;97622.97;5398559;26;21037;-58
2024/04/18 08:16:01;;;;;;;62.47;9.30;;;;;;;15.02;100.00;97629.94;5401397;26;20003;-62
2024/04/18 08:18:27;;;;;;;45.90;8.23;;;;;;;16.85;100.00;97636.63;5404510;26;20374;-59
2024/04/18 08:20:52;;;;;;;68.20;9.07;;;;;;;15.93;100.00;97636.94;5399864;26;19994;-58
2024/04/18 08:23:20;;;;;;;46.28;8.60;;;;;;;15.58;100.00;97637.09;5401347;26;20454;-57
2024/04/18 08:25:46;;;;;;;71.65;9.93;;;;;;;14.86;100.00;97639.97;5399757;26;20391;-61
2024/04/18 08:28:11;;;;;;;50.70;8.63;;;;;;;15.04;100.00;97641.22;5403628;26;20577;-59
2024/04/18 08:30:37;;;;;;;65.90;8.88;;;;;;;15.80;100.00;97643.44;5397899;26;20000;-58
2024/04/18 08:33:02;;;;;;;57.15;8.82;;;;;;;15.78;100.00;97648.75;5397470;26;20011;-59
2024/04/18 08:35:27;;;;;;;45.92;7.78;;;;;;;16.89;100.00;97642.66;5401020;26;20062;-58
2024/04/18 08:37:52;;;;;;;74.53;10.82;;;;;;;20.64;78.89;97638.56;5403805;26;20014;-60
2024/04/18 08:40:18;;;;;;;40.40;8.73;;;;;;;24.16;46.71;97634.63;5407475;26;20355;-61
2024/04/18 08:42:44;;;;;;;54.70;9.02;;;;;;;23.97;44.55;97628.78;5403570;26;20415;-59
2024/04/18 08:45:12;;;;;;;50.78;7.22;;;;;;;21.05;44.34;97643.53;5404720;26;20007;-59
2024/04/18 08:47:39;;;;;;;41.85;6.80;;;;;;;18.18;56.84;97655.50;5400112;26;20013;-60
2024/04/18 08:50:05;;;;;;;41.20;6.13;;;;;;;17.00;71.81;97653.63;5407413;26;20433;-63
2024/04/18 08:52:33;;;;;;;44.55;7.03;;;;;;;16.11;86.26;97659.13;5401584;26;20345;-61
2024/04/18 08:54:58;;;;;;;44.97;7.22;;;;;;;15.55;94.13;97667.78;5400947;26;20014;-58
2024/04/18 08:57:26;;;;;;;33.00;6.45;;;;;;;14.94;99.07;97662.44;5402374;26;20022;-59
2024/04/18 08:59:58;;;;;;;70.47;9.05;;;;;;;13.92;100.00;97669.19;5406659;26;20465;-59
2024/04/18 09:02:24;;;;;;;;;;;;;;;13.95;100.00;97680.47;5402154;26;20004;-59
2024/04/18 09:04:49;;;;;;;67.40;8.73;;;;;;;12.79;100.00;97671.34;5400021;26;19925;-57
2024/04/18 09:07:14;;;;;;;56.17;8.32;;;;;;;12.96;100.00;97676.28;5404286;26;20270;-57
2024/04/18 09:09:40;;;;;;;68.13;10.15;;;;;;;13.09;100.00;97683.00;5401890;26;20030;-58
2024/04/18 09:12:06;;;;;;;55.65;9.35;;;;;;;13.33;100.00;97677.34;5402185;26;20390;-62
2024/04/18 09:14:31;;;;;;;51.08;9.27;;;;;;;12.88;100.00;97676.44;5399561;26;20013;-58
2024/04/18 09:16:57;;;;;;;44.58;8.85;;;;;;;13.86;100.00;97686.75;5403450;26;20010;-62
2024/04/18 09:19:22;;;;;;;41.83;7.35;;;;;;;12.58;100.00;97683.91;5401210;26;20510;-58
2024/04/18 09:21:47;;;;;;;69.00;9.75;;;;;;;13.66;100.00;97695.88;5400821;26;20543;-59
2024/04/18 09:24:13;;;;;;;59.33;8.95;;;;;;;12.50;100.00;97695.31;5399964;26;20824;-59
2024/04/18 09:26:38;;;;;;;50.70;8.27;;;;;;;11.25;100.00;97697.78;5397613;26;20402;-59
2024/04/18 09:29:04;;;;;;;55.58;12.60;;;;;;;10.66;100.00;97710.47;5404029;26;19991;-57
2024/04/18 09:31:29;;;;;;;56.85;7.93;;;;;;;9.64;100.00;97711.91;5403062;26;20454;-58
2024/04/18 09:33:55;;;;;;;76.85;8.80;;;;;;;9.51;100.00;97711.97;5403729;26;20419;-61
2024/04/18 09:36:21;;;;;;;50.90;7.38;;;;;;;9.58;100.00;97712.81;5403176;26;20007;-60
2024/04/18 09:38:47;;;;;;;74.60;9.35;;;;;;;9.95;100.00;97714.38;5397681;26;20308;-59
2024/04/18 09:41:28;;;;;;;84.25;10.05;;;;;;;10.88;100.00;97714.63;5397318;26;19991;-61
2024/04/18 09:44:19;;;;;;;93.45;10.63;;;;;;;12.07;100.00;97709.84;5399817;26;20459;-59
2024/04/18 09:46:46;;;;;;;70.57;8.82;;;;;;;12.84;100.00;97711.31;5401657;26;20031;-61
2024/04/18 09:49:12;;;;;;;72.70;9.65;;;;;;;13.12;100.00;97716.03;5398962;26;20018;-60
2024/04/18 09:51:39;;;;;;;45.10;7.32;;;;;;;15.61;100.00;97707.78;5401197;26;20006;-59
2024/04/18 09:54:05;;;;;;;56.22;7.97;;;;;;;15.43;100.00;97705.66;5400145;26;20000;-60
2024/04/18 09:56:33;;;;;;;67.43;7.63;;;;;;;15.70;100.00;97704.03;5397858;26;20102;-57
2024/04/18 09:58:59;;;;;;;74.45;9.13;;;;;;;16.07;100.00;97701.28;5398859;26;19995;-61
2024/04/18 10:01:25;;;;;;;39.47;9.20;;;;;;;16.71;100.00;97705.38;5402967;26;20670;-61
2024/04/18 10:03:50;;;;;;;79.25;12.23;;;;;;;16.16;95.76;97702.75;5399040;26;20004;-61
2024/04/18 10:06:20;;;;;;;37.38;7.07;;;;;;;16.35;96.83;97708.28;5403970;26;20889;-59
2024/04/18 10:08:50;;;;;;;68.00;9.88;;;;;;;16.30;96.92;97707.56;5398743;26;19999;-59
2024/04/18 10:11:19;;;;;;;77.30;10.32;;;;;;;17.29;86.54;97704.34;5402310;26;19999;-61
2024/04/18 10:13:45;;;;;;;60.95;9.15;;;;;;;18.81;85.82;97707.41;5401355;26;19994;-61
2024/04/18 10:16:12;;;;;;;43.72;8.07;;;;;;;19.42;72.38;97711.91;5399732;26;19998;-60
2024/04/18 10:18:38;;;;;;;47.92;8.15;;;;;;;21.44;68.05;97707.66;5400027;26;20572;-59
2024/04/18 10:21:27;;;;;;;45.53;7.35;;;;;;;22.66;52.29;97708.22;5399930;26;20142;-59
2024/04/18 10:23:53;;;;;;;67.03;8.23;;;;;;;23.71;46.56;97698.50;5385397;26;20010;-59
2024/04/18 10:26:22;;;;;;;34.00;5.70;;;;;;;22.85;50.52;97695.63;5402664;26;19999;-60
2024/04/18 10:28:49;;;;;;;39.17;6.22;;;;;;;22.67;51.69;97699.34;5400135;26;20077;-58
2024/04/18 10:31:16;;;;;;;57.83;7.25;;;;;;;21.63;49.02;97703.19;5396546;26;20000;-62
2024/04/18 10:33:42;;;;;;;33.08;5.97;;;;;;;21.67;45.03;97710.88;5402053;26;20062;-61
2024/04/18 10:36:15;;;;;;;56.60;7.38;;;;;;;22.54;41.80;97707.97;5399632;26;20007;-59
2024/04/18 10:38:43;;;;;;;41.35;5.90;;;;;;;22.20;40.80;97700.09;5399500;26;20027;-61
2024/04/18 10:41:12;;;;;;;60.03;7.57;;;;;;;20.26;42.89;97703.72;5400830;26;20015;-60
2024/04/18 10:43:37;;;;;;;49.33;6.85;;;;;;;21.83;41.94;97702.16;5398072;26;19995;-58
2024/04/18 10:46:06;;;;;;;46.70;6.60;;;;;;;18.43;45.19;97709.81;5400012;26;20050;-60
2024/04/18 10:48:35;;;;;;;44.78;6.32;;;;;;;18.01;52.33;97704.38;5398547;26;20027;-61
2024/04/18 10:51:04;;;;;;;95.50;9.60;;;;;;;16.53;71.70;97705.06;5400582;26;20007;-59
2024/04/18 10:53:34;;;;;;;40.67;6.47;;;;;;;15.80;72.60;97694.13;5405271;26;20420;-61
2024/04/18 10:56:00;;;;;;;68.60;7.75;;;;;;;18.05;54.24;97698.09;5405115;26;20817;-60
2024/04/18 10:58:26;;;;;;;53.35;7.32;;;;;;;20.13;43.89;97689.41;5405665;26;20063;-58
2024/04/18 11:01:02;;;;;;;61.70;7.53;;;;;;;19.70;42.74;97700.16;5404046;26;20305;-60
2024/04/18 11:03:28;;;;;;;48.35;6.53;;;;;;;16.65;48.50;97697.69;5404153;26;20068;-59
2024/04/18 11:05:58;;;;;;;72.40;8.20;;;;;;;16.05;53.71;97703.06;5403209;26;20006;-59
2024/04/18 11:08:24;;;;;;;45.20;6.22;;;;;;;15.19;65.58;97710.69;5405404;26;20003;-60
2024/04/18 11:10:50;;;;;;;90.60;9.15;;;;;;;14.68;71.89;97708.44;5402065;26;20003;-58
2024/04/18 11:13:16;;;;;;;96.68;61.22;;;;;;;14.30;85.90;97711.03;5405451;26;20002;-62
2024/04/18 11:15:41;;;;;;;38.72;6.10;;;;;;;14.30;83.87;97711.03;5403297;26;19999;-62